sensor_id;sensor_type;location;lat;lon;timestamp;pressure;altitude;pressure_sealevel;temperature;humidity
57248;BME280;55809;46.618;10.764;2022-07-24T00:01:31;93460.59;;;18.49;83.47
57248;BME280;55809;46.618;10.764;2022-07-24T00:03:58;93457.97;;;18.46;83.02
57248;BME280;55809;46.618;10.764;2022-07-24T00:06:25;93465.25;;;18.49;82.59
57248;BME280;55809;46.618;10.764;2022-07-24T00:08:52;93462.22;;;18.47;83.11
57248;BME280;55809;46.618;10.764;2022-07-24T00:11:19;93469.22;;;18.48;83.13
57248;BME280;55809;46.618;10.764;2022-07-24T00:13:47;93451.59;;;18.36;82.49
57248;BME280;55809;46.618;10.764;2022-07-24T00:16:14;93460.34;;;18.44;82.32
57248;BME280;55809;46.618;10.764;2022-07-24T00:18:41;93457.97;;;18.46;82.54
57248;BME280;55809;46.618;10.764;2022-07-24T00:21:08;93458.91;;;18.39;82.39
57248;BME280;55809;46.618;10.764;2022-07-24T00:23:36;93454.09;;;18.31;82.32
57248;BME280;55809;46.618;10.764;2022-07-24T00:26:03;93452.66;;;18.26;82.92
57248;BME280;55809;46.618;10.764;2022-07-24T00:28:30;93463.03;;;18.18;83.48
57248;BME280;55809;46.618;10.764;2022-07-24T00:30:59;93462.13;;;18.09;84.14
57248;BME280;55809;46.618;10.764;2022-07-24T00:33:26;93463.44;;;18.04;84.30
57248;BME280;55809;46.618;10.764;2022-07-24T00:35:53;93452.81;;;18.06;83.84
57248;BME280;55809;46.618;10.764;2022-07-24T00:38:20;93462.38;;;18.14;84.00
57248;BME280;55809;46.618;10.764;2022-07-24T00:40:47;93456.34;;;18.19;82.73
57248;BME280;55809;46.618;10.764;2022-07-24T00:43:14;93452.34;;;18.24;82.57
57248;BME280;55809;46.618;10.764;2022-07-24T00:45:41;93455.31;;;18.30;82.35
57248;BME280;55809;46.618;10.764;2022-07-24T00:48:10;93455.09;;;18.37;81.89
57248;BME280;55809;46.618;10.764;2022-07-24T00:50:38;93443.59;;;18.42;81.45
57248;BME280;55809;46.618;10.764;2022-07-24T00:53:05;93440.88;;;18.42;81.55
57248;BME280;55809;46.618;10.764;2022-07-24T00:55:34;93416.94;;;18.33;80.68
57248;BME280;55809;46.618;10.764;2022-07-24T00:58:01;93441.00;;;18.51;80.80
57248;BME280;55809;46.618;10.764;2022-07-24T01:00:28;93447.22;;;18.51;80.76
57248;BME280;55809;46.618;10.764;2022-07-24T01:02:55;93453.91;;;18.50;80.92
57248;BME280;55809;46.618;10.764;2022-07-24T01:05:24;93447.97;;;18.39;81.33
57248;BME280;55809;46.618;10.764;2022-07-24T01:07:51;93447.88;;;18.30;81.81
57248;BME280;55809;46.618;10.764;2022-07-24T01:10:18;93399.56;;;17.85;82.51
57248;BME280;55809;46.618;10.764;2022-07-24T01:12:45;93454.78;;;18.05;83.37
57248;BME280;55809;46.618;10.764;2022-07-24T01:15:12;93445.50;;;18.03;83.50
57248;BME280;55809;46.618;10.764;2022-07-24T01:17:40;93448.66;;;18.01;83.14
57248;BME280;55809;46.618;10.764;2022-07-24T01:20:09;93443.66;;;18.00;83.58
57248;BME280;55809;46.618;10.764;2022-07-24T01:22:38;93454.91;;;18.02;83.35
57248;BME280;55809;46.618;10.764;2022-07-24T01:25:06;93447.09;;;17.88;84.08
57248;BME280;55809;46.618;10.764;2022-07-24T01:27:34;93449.19;;;17.84;84.73
57248;BME280;55809;46.618;10.764;2022-07-24T01:30:01;93451.13;;;17.83;84.57
57248;BME280;55809;46.618;10.764;2022-07-24T01:32:28;93447.97;;;17.85;84.68
57248;BME280;55809;46.618;10.764;2022-07-24T01:34:55;93446.88;;;17.82;84.97
57248;BME280;55809;46.618;10.764;2022-07-24T01:37:22;93437.47;;;17.83;85.06
57248;BME280;55809;46.618;10.764;2022-07-24T01:39:51;93443.03;;;17.79;85.63
57248;BME280;55809;46.618;10.764;2022-07-24T01:42:18;93440.03;;;17.74;86.11
57248;BME280;55809;46.618;10.764;2022-07-24T01:44:46;93438.19;;;17.71;86.64
57248;BME280;55809;46.618;10.764;2022-07-24T01:47:13;93439.22;;;17.77;86.04
57248;BME280;55809;46.618;10.764;2022-07-24T01:49:40;93443.09;;;17.76;86.01
57248;BME280;55809;46.618;10.764;2022-07-24T01:52:08;93438.00;;;17.78;85.22
57248;BME280;55809;46.618;10.764;2022-07-24T01:54:35;93434.50;;;17.77;85.60
57248;BME280;55809;46.618;10.764;2022-07-24T01:57:03;93429.44;;;17.76;85.21
57248;BME280;55809;46.618;10.764;2022-07-24T01:59:30;93439.16;;;17.93;84.67
57248;BME280;55809;46.618;10.764;2022-07-24T02:01:57;93436.63;;;17.99;84.49
57248;BME280;55809;46.618;10.764;2022-07-24T02:04:24;93435.00;;;18.01;84.26
57248;BME280;55809;46.618;10.764;2022-07-24T02:06:51;93439.72;;;18.01;83.82
57248;BME280;55809;46.618;10.764;2022-07-24T02:09:19;93435.63;;;17.93;83.97
57248;BME280;55809;46.618;10.764;2022-07-24T02:11:45;93443.16;;;17.89;84.35
57248;BME280;55809;46.618;10.764;2022-07-24T02:14:14;93445.81;;;17.92;84.21
57248;BME280;55809;46.618;10.764;2022-07-24T02:16:41;93400.53;;;17.78;83.73
57248;BME280;55809;46.618;10.764;2022-07-24T02:19:08;93442.34;;;18.04;83.45
57248;BME280;55809;46.618;10.764;2022-07-24T02:21:35;93432.38;;;17.98;82.26
57248;BME280;55809;46.618;10.764;2022-07-24T02:24:02;93437.75;;;18.01;83.43
57248;BME280;55809;46.618;10.764;2022-07-24T02:26:29;93444.31;;;18.04;83.38
57248;BME280;55809;46.618;10.764;2022-07-24T02:28:56;93449.78;;;18.04;83.46
57248;BME280;55809;46.618;10.764;2022-07-24T02:31:25;93443.34;;;18.11;83.36
57248;BME280;55809;46.618;10.764;2022-07-24T02:33:52;93450.69;;;18.14;83.32
57248;BME280;55809;46.618;10.764;2022-07-24T02:36:19;93418.72;;;17.98;83.39
57248;BME280;55809;46.618;10.764;2022-07-24T02:38:46;93449.22;;;18.09;83.47
57248;BME280;55809;46.618;10.764;2022-07-24T02:41:14;93443.56;;;18.03;83.71
57248;BME280;55809;46.618;10.764;2022-07-24T02:43:40;93427.41;;;17.80;83.99
57248;BME280;55809;46.618;10.764;2022-07-24T02:46:07;93446.25;;;17.91;84.27
57248;BME280;55809;46.618;10.764;2022-07-24T02:48:36;93451.38;;;17.89;84.41
57248;BME280;55809;46.618;10.764;2022-07-24T02:51:03;93447.09;;;17.88;84.41
57248;BME280;55809;46.618;10.764;2022-07-24T02:53:30;93446.00;;;17.85;84.51
57248;BME280;55809;46.618;10.764;2022-07-24T02:55:57;93440.28;;;17.79;84.54
57248;BME280;55809;46.618;10.764;2022-07-24T02:58:24;93439.22;;;17.90;84.16
57248;BME280;55809;46.618;10.764;2022-07-24T03:00:52;93432.16;;;17.92;83.89
57248;BME280;55809;46.618;10.764;2022-07-24T03:03:19;93436.75;;;17.95;83.71
57248;BME280;55809;46.618;10.764;2022-07-24T03:05:47;93430.53;;;17.95;83.70
57248;BME280;55809;46.618;10.764;2022-07-24T03:08:15;93433.78;;;17.90;83.94
57248;BME280;55809;46.618;10.764;2022-07-24T03:10:42;93439.78;;;17.85;84.68
57248;BME280;55809;46.618;10.764;2022-07-24T03:13:09;93413.34;;;17.65;85.31
57248;BME280;55809;46.618;10.764;2022-07-24T03:15:37;93396.84;;;17.56;84.57
57248;BME280;55809;46.618;10.764;2022-07-24T03:18:04;93429.16;;;17.87;84.71
57248;BME280;55809;46.618;10.764;2022-07-24T03:20:31;93423.28;;;17.88;84.59
57248;BME280;55809;46.618;10.764;2022-07-24T03:23:00;93436.50;;;17.90;84.29
57248;BME280;55809;46.618;10.764;2022-07-24T03:25:27;93432.03;;;17.96;84.05
57248;BME280;55809;46.618;10.764;2022-07-24T03:27:54;93432.38;;;17.98;83.47
57248;BME280;55809;46.618;10.764;2022-07-24T03:30:21;93422.97;;;17.99;83.56
57248;BME280;55809;46.618;10.764;2022-07-24T03:32:48;93431.38;;;17.92;83.94
57248;BME280;55809;46.618;10.764;2022-07-24T03:35:15;93431.84;;;17.90;83.78
57248;BME280;55809;46.618;10.764;2022-07-24T03:37:42;93392.03;;;17.60;83.58
57248;BME280;55809;46.618;10.764;2022-07-24T03:40:12;93433.88;;;17.86;83.38
57248;BME280;55809;46.618;10.764;2022-07-24T03:42:39;93439.34;;;17.86;83.70
57248;BME280;55809;46.618;10.764;2022-07-24T03:45:07;93439.44;;;17.83;83.78
57248;BME280;55809;46.618;10.764;2022-07-24T03:47:34;93425.28;;;17.71;83.82
57248;BME280;55809;46.618;10.764;2022-07-24T03:50:01;93432.56;;;17.78;83.89
57248;BME280;55809;46.618;10.764;2022-07-24T03:52:29;93429.75;;;17.65;83.79
57248;BME280;55809;46.618;10.764;2022-07-24T03:54:56;93424.63;;;17.67;84.07
57248;BME280;55809;46.618;10.764;2022-07-24T03:57:24;93428.63;;;17.63;84.58
57248;BME280;55809;46.618;10.764;2022-07-24T03:59:51;93428.47;;;17.53;85.25
57248;BME280;55809;46.618;10.764;2022-07-24T04:02:18;93441.22;;;17.44;85.41
57248;BME280;55809;46.618;10.764;2022-07-24T04:04:45;93412.78;;;17.28;85.54
57248;BME280;55809;46.618;10.764;2022-07-24T04:07:12;93441.56;;;17.29;86.39
57248;BME280;55809;46.618;10.764;2022-07-24T04:09:39;93443.81;;;17.18;86.71
57248;BME280;55809;46.618;10.764;2022-07-24T04:12:07;93441.41;;;17.20;86.64
57248;BME280;55809;46.618;10.764;2022-07-24T04:14:36;93440.25;;;17.21;86.93
57248;BME280;55809;46.618;10.764;2022-07-24T04:17:03;93441.31;;;17.24;86.88
57248;BME280;55809;46.618;10.764;2022-07-24T04:19:31;93443.09;;;17.30;86.52
57248;BME280;55809;46.618;10.764;2022-07-24T04:21:58;93441.38;;;17.37;86.11
57248;BME280;55809;46.618;10.764;2022-07-24T04:24:25;93442.25;;;17.33;86.06
57248;BME280;55809;46.618;10.764;2022-07-24T04:26:52;93451.81;;;17.25;86.46
57248;BME280;55809;46.618;10.764;2022-07-24T04:29:19;93443.28;;;17.23;86.73
57248;BME280;55809;46.618;10.764;2022-07-24T04:31:47;93441.66;;;17.26;87.05
57248;BME280;55809;46.618;10.764;2022-07-24T04:34:15;93450.19;;;17.28;86.69
57248;BME280;55809;46.618;10.764;2022-07-24T04:36:42;93427.28;;;17.09;86.93
57248;BME280;55809;46.618;10.764;2022-07-24T04:39:09;93461.03;;;17.31;86.70
57248;BME280;55809;46.618;10.764;2022-07-24T04:41:36;93451.53;;;17.36;86.36
57248;BME280;55809;46.618;10.764;2022-07-24T04:44:03;93453.31;;;17.43;86.33
57248;BME280;55809;46.618;10.764;2022-07-24T04:46:30;93453.91;;;17.50;85.57
57248;BME280;55809;46.618;10.764;2022-07-24T04:48:59;93448.13;;;17.48;85.52
57248;BME280;55809;46.618;10.764;2022-07-24T04:51:26;93447.69;;;17.50;85.49
57248;BME280;55809;46.618;10.764;2022-07-24T04:53:53;93449.22;;;17.51;85.10
57248;BME280;55809;46.618;10.764;2022-07-24T04:56:21;93449.28;;;17.64;84.82
57248;BME280;55809;46.618;10.764;2022-07-24T04:58:48;93455.41;;;17.68;84.92
57248;BME280;55809;46.618;10.764;2022-07-24T05:01:15;93455.91;;;17.79;84.53
57248;BME280;55809;46.618;10.764;2022-07-24T05:03:42;93455.72;;;17.86;84.57
57248;BME280;55809;46.618;10.764;2022-07-24T05:06:11;93463.53;;;18.00;84.01
57248;BME280;55809;46.618;10.764;2022-07-24T05:08:38;93463.13;;;18.15;83.17
57248;BME280;55809;46.618;10.764;2022-07-24T05:11:07;93467.75;;;18.31;82.54
57248;BME280;55809;46.618;10.764;2022-07-24T05:13:34;93466.25;;;18.30;81.46
57248;BME280;55809;46.618;10.764;2022-07-24T05:16:01;93439.88;;;18.23;81.42
57248;BME280;55809;46.618;10.764;2022-07-24T05:18:28;93463.84;;;18.44;80.87
57248;BME280;55809;46.618;10.764;2022-07-24T05:20:55;93466.50;;;18.61;80.25
57248;BME280;55809;46.618;10.764;2022-07-24T05:23:23;93457.88;;;18.75;79.27
57248;BME280;55809;46.618;10.764;2022-07-24T05:25:50;93467.28;;;18.87;79.28
57248;BME280;55809;46.618;10.764;2022-07-24T05:28:17;93460.28;;;18.98;78.76
57248;BME280;55809;46.618;10.764;2022-07-24T05:30:44;93460.59;;;19.13;78.28
57248;BME280;55809;46.618;10.764;2022-07-24T05:33:11;93467.69;;;19.24;77.01
57248;BME280;55809;46.618;10.764;2022-07-24T05:35:38;93447.91;;;19.19;77.01
57248;BME280;55809;46.618;10.764;2022-07-24T05:38:05;93449.41;;;19.33;76.34
57248;BME280;55809;46.618;10.764;2022-07-24T05:40:34;93459.94;;;19.57;75.85
57248;BME280;55809;46.618;10.764;2022-07-24T05:43:01;93438.81;;;19.57;75.73
57248;BME280;55809;46.618;10.764;2022-07-24T05:45:28;93455.25;;;19.92;75.53
57248;BME280;55809;46.618;10.764;2022-07-24T05:47:55;93452.81;;;20.16;74.75
57248;BME280;55809;46.618;10.764;2022-07-24T05:50:22;93452.81;;;20.38;73.92
57248;BME280;55809;46.618;10.764;2022-07-24T05:52:50;93450.84;;;20.60;72.70
57248;BME280;55809;46.618;10.764;2022-07-24T05:55:17;93451.56;;;20.83;72.21
57248;BME280;55809;46.618;10.764;2022-07-24T05:57:46;93431.59;;;20.92;71.12
57248;BME280;55809;46.618;10.764;2022-07-24T06:00:14;93424.03;;;21.05;69.97
57248;BME280;55809;46.618;10.764;2022-07-24T06:02:44;93458.50;;;21.56;69.50
57248;BME280;55809;46.618;10.764;2022-07-24T06:05:14;93447.81;;;21.85;69.15
57248;BME280;55809;46.618;10.764;2022-07-24T06:07:43;93439.25;;;22.11;68.31
57248;BME280;55809;46.618;10.764;2022-07-24T06:10:12;93454.78;;;22.51;66.46
57248;BME280;55809;46.618;10.764;2022-07-24T06:12:39;93446.88;;;22.86;64.26
57248;BME280;55809;46.618;10.764;2022-07-24T06:15:10;93447.91;;;23.07;63.21
57248;BME280;55809;46.618;10.764;2022-07-24T06:17:37;93403.91;;;22.98;63.38
57248;BME280;55809;46.618;10.764;2022-07-24T06:20:05;93427.00;;;23.24;62.66
57248;BME280;55809;46.618;10.764;2022-07-24T06:22:34;93435.81;;;23.61;61.46
57248;BME280;55809;46.618;10.764;2022-07-24T06:25:03;93440.34;;;23.74;61.05
57248;BME280;55809;46.618;10.764;2022-07-24T06:27:30;93447.06;;;23.97;61.26
57248;BME280;55809;46.618;10.764;2022-07-24T06:29:58;93438.06;;;24.11;61.23
57248;BME280;55809;46.618;10.764;2022-07-24T06:32:27;93433.41;;;24.17;60.22
57248;BME280;55809;46.618;10.764;2022-07-24T06:34:54;93440.09;;;24.25;59.52
57248;BME280;55809;46.618;10.764;2022-07-24T06:37:21;93436.75;;;24.36;59.15
57248;BME280;55809;46.618;10.764;2022-07-24T06:39:49;93429.25;;;24.66;58.23
57248;BME280;55809;46.618;10.764;2022-07-24T06:42:16;93426.50;;;24.81;57.92
57248;BME280;55809;46.618;10.764;2022-07-24T06:44:45;93427.88;;;25.06;57.01
57248;BME280;55809;46.618;10.764;2022-07-24T06:47:12;93426.63;;;25.22;55.95
57248;BME280;55809;46.618;10.764;2022-07-24T06:49:40;93425.75;;;25.31;55.41
57248;BME280;55809;46.618;10.764;2022-07-24T06:52:08;93410.97;;;25.34;55.07
57248;BME280;55809;46.618;10.764;2022-07-24T06:54:35;93419.13;;;25.43;54.99
57248;BME280;55809;46.618;10.764;2022-07-24T06:57:02;93421.53;;;25.76;56.86
57248;BME280;55809;46.618;10.764;2022-07-24T06:59:29;93415.53;;;25.98;56.35
57248;BME280;55809;46.618;10.764;2022-07-24T07:01:57;93387.06;;;25.92;56.01
57248;BME280;55809;46.618;10.764;2022-07-24T07:04:25;93396.72;;;26.02;55.50
57248;BME280;55809;46.618;10.764;2022-07-24T07:06:53;93415.88;;;26.32;55.76
57248;BME280;55809;46.618;10.764;2022-07-24T07:09:22;93408.69;;;26.40;53.02
57248;BME280;55809;46.618;10.764;2022-07-24T07:11:50;93407.13;;;26.59;53.17
57248;BME280;55809;46.618;10.764;2022-07-24T07:14:17;93406.63;;;26.61;52.81
57248;BME280;55809;46.618;10.764;2022-07-24T07:16:45;93406.91;;;26.63;52.31
57248;BME280;55809;46.618;10.764;2022-07-24T07:19:12;93405.59;;;26.90;52.36
57248;BME280;55809;46.618;10.764;2022-07-24T07:21:39;93409.41;;;26.98;51.21
57248;BME280;55809;46.618;10.764;2022-07-24T07:24:08;93401.97;;;27.10;51.17
57248;BME280;55809;46.618;10.764;2022-07-24T07:26:35;93402.16;;;27.38;50.44
57248;BME280;55809;46.618;10.764;2022-07-24T07:29:04;93406.00;;;27.52;52.46
57248;BME280;55809;46.618;10.764;2022-07-24T07:31:33;93381.88;;;27.69;52.89
57248;BME280;55809;46.618;10.764;2022-07-24T07:34:00;93394.34;;;27.85;51.58
57248;BME280;55809;46.618;10.764;2022-07-24T07:36:28;93391.91;;;28.15;51.17
57248;BME280;55809;46.618;10.764;2022-07-24T07:38:57;93385.09;;;28.22;49.26
57248;BME280;55809;46.618;10.764;2022-07-24T07:41:28;93390.22;;;28.51;49.29
57248;BME280;55809;46.618;10.764;2022-07-24T07:43:56;93389.19;;;28.66;49.89
57248;BME280;55809;46.618;10.764;2022-07-24T07:46:26;93386.69;;;28.57;47.51
57248;BME280;55809;46.618;10.764;2022-07-24T07:48:53;93390.47;;;28.54;48.60
57248;BME280;55809;46.618;10.764;2022-07-24T07:51:21;93390.22;;;28.68;49.77
57248;BME280;55809;46.618;10.764;2022-07-24T07:53:50;93373.56;;;28.80;48.59
57248;BME280;55809;46.618;10.764;2022-07-24T07:56:18;93386.19;;;29.09;48.89
57248;BME280;55809;46.618;10.764;2022-07-24T07:58:47;93388.16;;;29.31;47.93
57248;BME280;55809;46.618;10.764;2022-07-24T08:01:14;93365.72;;;29.01;47.14
57248;BME280;55809;46.618;10.764;2022-07-24T08:03:42;93375.53;;;29.35;47.09
57248;BME280;55809;46.618;10.764;2022-07-24T08:06:09;93380.31;;;29.40;47.66
57248;BME280;55809;46.618;10.764;2022-07-24T08:08:36;93381.31;;;29.49;48.13
57248;BME280;55809;46.618;10.764;2022-07-24T08:11:03;93374.97;;;29.54;46.67
57248;BME280;55809;46.618;10.764;2022-07-24T08:13:32;93378.28;;;29.47;48.09
57248;BME280;55809;46.618;10.764;2022-07-24T08:16:02;93365.13;;;29.47;47.65
57248;BME280;55809;46.618;10.764;2022-07-24T08:18:31;93364.91;;;29.39;47.06
57248;BME280;55809;46.618;10.764;2022-07-24T08:20:58;93369.44;;;29.37;47.48
57248;BME280;55809;46.618;10.764;2022-07-24T08:23:25;93360.56;;;29.50;45.11
57248;BME280;55809;46.618;10.764;2022-07-24T08:25:52;93362.53;;;29.72;45.78
57248;BME280;55809;46.618;10.764;2022-07-24T08:28:19;93363.00;;;29.81;45.80
57248;BME280;55809;46.618;10.764;2022-07-24T08:30:48;93357.91;;;29.85;47.43
57248;BME280;55809;46.618;10.764;2022-07-24T08:33:19;93356.44;;;29.79;45.31
57248;BME280;55809;46.618;10.764;2022-07-24T08:35:46;93361.97;;;29.84;48.06
57248;BME280;55809;46.618;10.764;2022-07-24T08:38:14;93356.47;;;29.67;45.43
57248;BME280;55809;46.618;10.764;2022-07-24T08:40:41;93351.09;;;29.81;47.26
57248;BME280;55809;46.618;10.764;2022-07-24T08:43:09;93351.91;;;29.70;46.69
57248;BME280;55809;46.618;10.764;2022-07-24T08:45:39;93350.19;;;29.56;45.52
57248;BME280;55809;46.618;10.764;2022-07-24T08:48:07;93345.75;;;29.88;47.62
57248;BME280;55809;46.618;10.764;2022-07-24T08:50:38;93349.78;;;29.87;46.58
57248;BME280;55809;46.618;10.764;2022-07-24T08:53:07;93342.63;;;30.03;46.36
57248;BME280;55809;46.618;10.764;2022-07-24T08:55:34;93344.03;;;30.27;44.22
57248;BME280;55809;46.618;10.764;2022-07-24T08:58:01;93344.38;;;30.06;44.75
57248;BME280;55809;46.618;10.764;2022-07-24T09:00:30;93339.88;;;29.98;46.37
57248;BME280;55809;46.618;10.764;2022-07-24T09:02:58;93343.06;;;30.24;46.45
57248;BME280;55809;46.618;10.764;2022-07-24T09:05:25;93348.44;;;30.11;45.20
57248;BME280;55809;46.618;10.764;2022-07-24T09:08:07;93335.44;;;29.78;47.63
57248;BME280;55809;46.618;10.764;2022-07-24T09:10:34;93335.75;;;30.10;46.23
57248;BME280;55809;46.618;10.764;2022-07-24T09:13:16;93335.53;;;30.08;46.67
57248;BME280;55809;46.618;10.764;2022-07-24T09:15:46;93328.59;;;30.26;46.60
57248;BME280;55809;46.618;10.764;2022-07-24T09:18:27;93324.59;;;30.15;47.63
57248;BME280;55809;46.618;10.764;2022-07-24T09:20:56;93326.72;;;29.98;46.10
57248;BME280;55809;46.618;10.764;2022-07-24T09:23:25;93324.59;;;30.21;45.80
57248;BME280;55809;46.618;10.764;2022-07-24T09:25:54;93320.97;;;30.32;45.13
57248;BME280;55809;46.618;10.764;2022-07-24T09:28:21;93319.94;;;30.35;44.98
57248;BME280;55809;46.618;10.764;2022-07-24T09:30:48;93321.38;;;30.47;44.40
57248;BME280;55809;46.618;10.764;2022-07-24T09:33:17;93307.75;;;30.68;46.12
57248;BME280;55809;46.618;10.764;2022-07-24T09:35:48;93309.28;;;30.69;44.62
57248;BME280;55809;46.618;10.764;2022-07-24T09:38:18;93304.69;;;30.72;43.28
57248;BME280;55809;46.618;10.764;2022-07-24T09:40:49;93309.50;;;30.71;45.22
57248;BME280;55809;46.618;10.764;2022-07-24T09:43:20;93290.66;;;30.83;44.02
57248;BME280;55809;46.618;10.764;2022-07-24T09:45:58;93296.63;;;30.68;45.74
57248;BME280;55809;46.618;10.764;2022-07-24T09:48:28;93287.22;;;30.71;45.11
57248;BME280;55809;46.618;10.764;2022-07-24T09:50:57;93292.41;;;30.86;46.02
57248;BME280;55809;46.618;10.764;2022-07-24T09:53:26;93286.66;;;30.78;42.81
57248;BME280;55809;46.618;10.764;2022-07-24T09:56:01;93291.66;;;30.86;45.21
57248;BME280;55809;46.618;10.764;2022-07-24T09:58:33;93297.19;;;30.61;45.29
57248;BME280;55809;46.618;10.764;2022-07-24T10:01:03;93284.47;;;30.66;44.32
57248;BME280;55809;46.618;10.764;2022-07-24T10:03:32;93275.94;;;30.58;41.61
57248;BME280;55809;46.618;10.764;2022-07-24T10:06:02;93278.19;;;30.90;41.35
57248;BME280;55809;46.618;10.764;2022-07-24T10:08:31;93247.25;;;30.93;42.84
57248;BME280;55809;46.618;10.764;2022-07-24T10:11:00;93269.13;;;31.33;42.44
57248;BME280;55809;46.618;10.764;2022-07-24T10:13:28;93272.09;;;31.16;41.58
57248;BME280;55809;46.618;10.764;2022-07-24T10:16:25;93264.56;;;31.11;44.29
57248;BME280;55809;46.618;10.764;2022-07-24T10:18:54;93262.75;;;30.89;42.73
57248;BME280;55809;46.618;10.764;2022-07-24T10:21:25;93262.69;;;30.94;41.90
57248;BME280;55809;46.618;10.764;2022-07-24T10:24:19;93259.31;;;31.01;43.34
57248;BME280;55809;46.618;10.764;2022-07-24T10:27:03;93257.00;;;31.05;43.02
57248;BME280;55809;46.618;10.764;2022-07-24T10:29:33;93255.78;;;30.76;44.13
57248;BME280;55809;46.618;10.764;2022-07-24T10:32:03;93250.38;;;30.84;43.91
57248;BME280;55809;46.618;10.764;2022-07-24T10:34:38;93246.06;;;30.83;43.65
57248;BME280;55809;46.618;10.764;2022-07-24T10:37:11;93231.34;;;30.88;41.44
57248;BME280;55809;46.618;10.764;2022-07-24T10:39:47;93240.97;;;30.87;43.76
57248;BME280;55809;46.618;10.764;2022-07-24T10:42:18;93238.34;;;30.95;43.07
57248;BME280;55809;46.618;10.764;2022-07-24T10:45:15;93226.66;;;30.77;43.86
57248;BME280;55809;46.618;10.764;2022-07-24T10:47:43;93225.78;;;30.58;44.70
57248;BME280;55809;46.618;10.764;2022-07-24T10:50:11;93224.69;;;30.67;42.90
57248;BME280;55809;46.618;10.764;2022-07-24T10:52:40;93205.16;;;30.67;44.14
57248;BME280;55809;46.618;10.764;2022-07-24T10:55:31;93214.81;;;30.66;42.22
57248;BME280;55809;46.618;10.764;2022-07-24T10:58:02;93212.44;;;30.75;44.74
57248;BME280;55809;46.618;10.764;2022-07-24T11:00:33;93203.22;;;30.86;42.55
57248;BME280;55809;46.618;10.764;2022-07-24T11:03:03;93203.06;;;30.78;44.68
57248;BME280;55809;46.618;10.764;2022-07-24T11:05:33;93183.75;;;30.56;43.73
57248;BME280;55809;46.618;10.764;2022-07-24T11:08:12;93206.16;;;30.69;45.80
57248;BME280;55809;46.618;10.764;2022-07-24T11:10:46;93185.75;;;30.86;41.86
57248;BME280;55809;46.618;10.764;2022-07-24T11:13:41;93190.28;;;30.89;41.84
57248;BME280;55809;46.618;10.764;2022-07-24T11:16:27;93187.09;;;30.79;42.50
57248;BME280;55809;46.618;10.764;2022-07-24T11:19:27;93182.31;;;30.74;42.89
57248;BME280;55809;46.618;10.764;2022-07-24T11:22:11;93188.69;;;30.69;43.16
57248;BME280;55809;46.618;10.764;2022-07-24T11:27:25;93176.53;;;30.47;44.49
57248;BME280;55809;46.618;10.764;2022-07-24T11:29:55;93165.34;;;30.23;43.75
57248;BME280;55809;46.618;10.764;2022-07-24T11:32:28;93169.00;;;30.06;44.70
57248;BME280;55809;46.618;10.764;2022-07-24T11:34:56;93166.03;;;29.99;42.47
57248;BME280;55809;46.618;10.764;2022-07-24T11:37:29;93161.47;;;30.01;45.58
57248;BME280;55809;46.618;10.764;2022-07-24T11:39:57;93161.13;;;29.80;46.15
57248;BME280;55809;46.618;10.764;2022-07-24T11:42:26;93149.63;;;29.65;46.61
57248;BME280;55809;46.618;10.764;2022-07-24T11:44:56;93154.50;;;29.48;44.36
57248;BME280;55809;46.618;10.764;2022-07-24T11:47:26;93136.13;;;29.33;44.88
57248;BME280;55809;46.618;10.764;2022-07-24T11:49:56;93153.00;;;29.41;44.68
57248;BME280;55809;46.618;10.764;2022-07-24T11:52:27;93155.34;;;29.31;44.50
57248;BME280;55809;46.618;10.764;2022-07-24T11:54:58;93134.75;;;29.10;46.97
57248;BME280;55809;46.618;10.764;2022-07-24T11:57:28;93112.06;;;29.00;43.66
57248;BME280;55809;46.618;10.764;2022-07-24T11:59:58;93141.34;;;29.07;46.09
57248;BME280;55809;46.618;10.764;2022-07-24T12:02:27;93139.03;;;29.11;45.95
57248;BME280;55809;46.618;10.764;2022-07-24T12:04:56;93132.97;;;29.12;46.89
57248;BME280;55809;46.618;10.764;2022-07-24T12:07:25;93130.19;;;29.12;46.41
57248;BME280;55809;46.618;10.764;2022-07-24T12:09:56;93127.94;;;29.05;47.50
57248;BME280;55809;46.618;10.764;2022-07-24T12:12:27;93123.44;;;28.96;43.98
57248;BME280;55809;46.618;10.764;2022-07-24T12:15:02;93125.50;;;28.79;45.93
57248;BME280;55809;46.618;10.764;2022-07-24T12:17:32;93118.97;;;28.77;44.26
57248;BME280;55809;46.618;10.764;2022-07-24T12:20:02;93114.44;;;28.73;45.12
57248;BME280;55809;46.618;10.764;2022-07-24T12:22:32;93110.13;;;28.72;45.96
57248;BME280;55809;46.618;10.764;2022-07-24T12:25:01;93096.22;;;28.78;46.84
57248;BME280;55809;46.618;10.764;2022-07-24T12:27:35;93108.06;;;28.84;44.32
57248;BME280;55809;46.618;10.764;2022-07-24T12:30:18;93101.50;;;28.87;44.31
57248;BME280;55809;46.618;10.764;2022-07-24T12:33:04;93094.66;;;28.88;43.04
57248;BME280;55809;46.618;10.764;2022-07-24T12:35:52;93096.66;;;28.99;44.49
57248;BME280;55809;46.618;10.764;2022-07-24T12:38:27;93096.31;;;29.14;44.04
57248;BME280;55809;46.618;10.764;2022-07-24T12:41:06;93083.78;;;28.90;43.57
57248;BME280;55809;46.618;10.764;2022-07-24T12:43:54;93075.19;;;28.94;44.59
57248;BME280;55809;46.618;10.764;2022-07-24T12:46:33;93072.69;;;28.90;44.76
57248;BME280;55809;46.618;10.764;2022-07-24T12:49:04;93066.31;;;29.01;43.65
57248;BME280;55809;46.618;10.764;2022-07-24T12:51:49;93068.59;;;29.03;42.50
57248;BME280;55809;46.618;10.764;2022-07-24T12:54:22;93060.28;;;29.03;42.58
57248;BME280;55809;46.618;10.764;2022-07-24T12:56:54;93066.28;;;29.12;43.42
57248;BME280;55809;46.618;10.764;2022-07-24T12:59:25;93065.75;;;29.14;44.51
57248;BME280;55809;46.618;10.764;2022-07-24T13:02:02;93032.47;;;29.03;41.41
57248;BME280;55809;46.618;10.764;2022-07-24T13:04:40;93049.75;;;29.26;42.10